createdAt,value
2017-03-07T00:00:04.273Z,46.13
2017-03-07T00:00:18.884Z,46.03
2017-03-07T00:00:34.032Z,46.33
2017-03-07T00:00:48.634Z,47.87
2017-03-07T00:01:03.264Z,48.71
2017-03-07T00:01:17.926Z,49.39
2017-03-07T00:01:32.597Z,49
2017-03-07T00:01:47.193Z,48.33
2017-03-07T00:02:01.773Z,48.42
2017-03-07T00:02:16.408Z,47.45
2017-03-07T00:02:31.023Z,46.61
2017-03-07T00:02:45.625Z,46.59
2017-03-07T00:03:00.258Z,46.78
2017-03-07T00:03:14.889Z,46.33
2017-03-07T00:03:29.498Z,45.65
2017-03-07T00:03:44.163Z,45.17
2017-03-07T00:03:58.864Z,44.68
2017-03-07T00:04:13.483Z,45.17
2017-03-07T00:04:28.103Z,44.78
2017-03-07T00:04:42.720Z,44.78
2017-03-07T00:04:57.368Z,45.94
2017-03-07T00:05:12.062Z,45.94
2017-03-07T00:05:26.739Z,46.03
2017-03-07T00:05:41.427Z,46.13
2017-03-07T00:05:55.983Z,45.75
2017-03-07T00:06:10.608Z,45.45
2017-03-07T00:06:25.223Z,45.17
2017-03-07T00:06:39.879Z,44.59
2017-03-07T00:06:54.554Z,44.39
2017-03-07T00:07:09.210Z,44.29
2017-03-07T00:07:23.885Z,44.29
2017-03-07T00:07:38.515Z,44.49
2017-03-07T00:07:53.153Z,44.1
2017-03-07T00:08:07.743Z,44.01
2017-03-07T00:08:22.449Z,43.43
2017-03-07T00:08:37.101Z,43.62
2017-03-07T00:08:51.687Z,43.43
2017-03-07T00:09:06.244Z,43.62
2017-03-07T00:09:21.108Z,44.59
2017-03-07T00:09:35.791Z,46.03
2017-03-07T00:09:50.466Z,45.55
2017-03-07T00:10:05.101Z,44.87
2017-03-07T00:10:19.766Z,44.39
2017-03-07T00:10:34.334Z,43.89
2017-03-07T00:10:48.894Z,43.5
2017-03-07T00:11:03.524Z,43.5
2017-03-07T00:11:18.102Z,43.31
2017-03-07T00:11:32.744Z,43.6
2017-03-07T00:11:47.434Z,43.5
2017-03-07T00:12:02.097Z,43.5
2017-03-07T00:12:16.743Z,43.21
2017-03-07T00:12:31.421Z,43.6
2017-03-07T00:12:46.011Z,42.73
2017-03-07T00:13:00.658Z,43.02
2017-03-07T00:13:15.288Z,42.54
2017-03-07T00:13:29.952Z,42.35
2017-03-07T00:13:44.585Z,42.54
2017-03-07T00:13:59.193Z,43.21
2017-03-07T00:14:13.755Z,43.7
2017-03-07T00:14:28.438Z,43.89
2017-03-07T00:14:43.079Z,43.7
2017-03-07T00:14:57.664Z,43.41
2017-03-07T00:15:12.279Z,43.21
2017-03-07T00:15:26.918Z,43.12
2017-03-07T00:15:41.635Z,42.63
2017-03-07T00:15:56.267Z,42.93
2017-03-07T00:16:10.867Z,42.73
2017-03-07T00:16:25.465Z,42.54
2017-03-07T00:16:40.121Z,41.77
2017-03-07T00:16:54.745Z,42.25
2017-03-07T00:17:09.405Z,41.96
2017-03-07T00:17:24.079Z,41.48
2017-03-07T00:17:38.726Z,41.38
2017-03-07T00:17:53.304Z,41.28
2017-03-07T00:18:07.936Z,40.99
2017-03-07T00:18:22.588Z,40.32
2017-03-07T00:18:37.213Z,40.12
2017-03-07T00:18:51.855Z,40.22
2017-03-07T00:19:06.474Z,39.84
2017-03-07T00:19:21.130Z,39.54
2017-03-07T00:19:35.708Z,39.64
2017-03-07T00:19:50.291Z,39.45
2017-03-07T00:20:04.945Z,39.26
2017-03-07T00:20:19.616Z,39.26
2017-03-07T00:20:34.285Z,39.26
2017-03-07T00:20:48.946Z,38.78
2017-03-07T00:21:03.572Z,38.49
2017-03-07T00:21:18.142Z,37.91
2017-03-07T00:21:32.758Z,37.91
2017-03-07T00:21:47.380Z,37.98
2017-03-07T00:22:02.068Z,38.29
2017-03-07T00:22:16.765Z,38.2
2017-03-07T00:22:31.604Z,37.62
2017-03-07T00:22:46.214Z,37.71
2017-03-07T00:23:00.839Z,37.62
2017-03-07T00:23:15.516Z,37.81
2017-03-07T00:23:30.136Z,37.81
2017-03-07T00:23:44.725Z,37.91
2017-03-07T00:23:59.340Z,37.91
2017-03-07T00:24:14.023Z,37.62
2017-03-07T00:24:28.685Z,37.23
2017-03-07T00:24:43.290Z,37.23
2017-03-07T00:24:57.950Z,37.13
2017-03-07T00:25:12.559Z,37.52
2017-03-07T00:25:27.159Z,37.33
2017-03-07T00:25:41.816Z,37.52
2017-03-07T00:25:56.421Z,37.33
2017-03-07T00:26:10.972Z,37.13
2017-03-07T00:26:25.604Z,37.43
2017-03-07T00:26:40.300Z,36.94
2017-03-07T00:26:54.927Z,37.43
2017-03-07T00:27:09.582Z,37.62
2017-03-07T00:27:24.221Z,37.62
2017-03-07T00:27:38.843Z,37.91
2017-03-07T00:27:53.445Z,37.71
2017-03-07T00:28:08.105Z,37.81
2017-03-07T00:28:22.664Z,37.81
2017-03-07T00:28:37.274Z,37.81
2017-03-07T00:28:51.889Z,38.2
2017-03-07T00:29:06.526Z,38.87
2017-03-07T00:29:21.135Z,39.47
2017-03-07T00:29:35.774Z,39.76
2017-03-07T00:29:50.420Z,40.82
2017-03-07T00:30:05.048Z,40.72
2017-03-07T00:30:19.725Z,41.3
2017-03-07T00:30:34.460Z,41.88
2017-03-07T00:30:49.123Z,43.81
2017-03-07T00:31:03.751Z,44.49
2017-03-07T00:31:18.411Z,45.36
2017-03-07T00:31:33.059Z,45.07
2017-03-07T00:31:47.679Z,45.17
2017-03-07T00:32:02.372Z,44.68
2017-03-07T00:32:16.968Z,46.03
2017-03-07T00:32:31.630Z,46.71
2017-03-07T00:32:46.257Z,46.9
2017-03-07T00:33:00.872Z,46.71
2017-03-07T00:33:15.512Z,46.34
2017-03-07T00:33:30.162Z,45.65
2017-03-07T00:33:44.822Z,45.28
2017-03-07T00:33:59.440Z,45.57
2017-03-07T00:34:14.041Z,45.57
2017-03-07T00:34:28.698Z,44.9
2017-03-07T00:34:43.294Z,44.6
2017-03-07T00:34:57.935Z,44.51
2017-03-07T00:35:12.557Z,44.32
2017-03-07T00:35:27.180Z,44.78
2017-03-07T00:35:41.826Z,44.9
2017-03-07T00:35:56.408Z,44.22
2017-03-07T00:36:11.004Z,43.74
2017-03-07T00:36:25.596Z,43.91
2017-03-07T00:36:40.227Z,44.22
2017-03-07T00:36:54.892Z,44.39
2017-03-07T00:37:09.493Z,44.6
2017-03-07T00:37:24.113Z,45.17
2017-03-07T00:37:38.994Z,45.36
2017-03-07T00:37:53.563Z,46.13
2017-03-07T00:38:08.155Z,46.33
2017-03-07T00:38:22.811Z,46.23
2017-03-07T00:38:37.455Z,46.23
2017-03-07T00:38:52.140Z,45.55
2017-03-07T00:39:06.708Z,45.45
2017-03-07T00:39:21.272Z,46.23
2017-03-07T00:39:35.893Z,46.42
2017-03-07T00:39:50.528Z,46.25
2017-03-07T00:40:05.194Z,45.55
2017-03-07T00:40:20.430Z,45.07
2017-03-07T00:40:35.064Z,44.78
2017-03-07T00:40:49.665Z,43.81
2017-03-07T00:41:04.358Z,43.62
2017-03-07T00:41:19.004Z,43.06
2017-03-07T00:41:33.666Z,43.24
2017-03-07T00:41:48.278Z,43.43
2017-03-07T00:42:02.881Z,42.94
2017-03-07T00:42:17.515Z,43.54
2017-03-07T00:42:32.104Z,43.54
2017-03-07T00:42:46.767Z,44.59
2017-03-07T00:43:01.374Z,45.17
2017-03-07T00:43:16.036Z,44.87
2017-03-07T00:43:30.676Z,44.87
2017-03-07T00:43:45.341Z,44.87
2017-03-07T00:44:00.047Z,46.51
2017-03-07T00:44:14.707Z,46.42
2017-03-07T00:44:29.320Z,45.84
2017-03-07T00:44:43.944Z,45.17
2017-03-07T00:44:58.576Z,45.26
2017-03-07T00:45:13.225Z,44.87
2017-03-07T00:45:27.888Z,44.59
2017-03-07T00:45:42.445Z,44.01
2017-03-07T00:45:57.064Z,44.1
2017-03-07T00:46:11.657Z,44.87
2017-03-07T00:46:26.326Z,46.23
2017-03-07T00:46:40.977Z,45.65
2017-03-07T00:46:55.611Z,46.03
2017-03-07T00:47:10.130Z,46.13
2017-03-07T00:47:24.665Z,45.45
2017-03-07T00:47:39.474Z,44.68
2017-03-07T00:47:54.128Z,46.23
2017-03-07T00:48:08.788Z,46.71
2017-03-07T00:48:23.401Z,46.51
2017-03-07T00:48:38.016Z,46.51
2017-03-07T00:48:53.784Z,47.67
2017-03-07T00:49:08.492Z,47.96
2017-03-07T00:49:23.159Z,47.77
2017-03-07T00:49:37.821Z,47
2017-03-07T00:49:52.463Z,47.09
2017-03-07T00:50:07.118Z,47.48
2017-03-07T00:50:21.718Z,46.71
2017-03-07T00:50:36.396Z,48.16
2017-03-07T00:50:51.012Z,48.64
2017-03-07T00:51:05.636Z,48.93
2017-03-07T00:51:20.272Z,48.64
2017-03-07T00:51:34.851Z,48.93
2017-03-07T00:51:49.510Z,49.02
2017-03-07T00:52:04.193Z,49.02
2017-03-07T00:52:18.867Z,48.35
2017-03-07T00:52:33.765Z,48.16
2017-03-07T00:52:48.368Z,48.44
2017-03-07T00:53:03.029Z,48.35
2017-03-07T00:53:17.668Z,48.71
2017-03-07T00:53:32.268Z,48.61
2017-03-07T00:53:46.875Z,49.1
2017-03-07T00:54:01.495Z,48.9
2017-03-07T00:54:16.054Z,48.64
2017-03-07T00:54:30.799Z,49.02
2017-03-07T00:54:45.411Z,49.87
2017-03-07T00:55:00.083Z,50.93
2017-03-07T00:55:14.731Z,49.29
2017-03-07T00:55:29.330Z,48.35
2017-03-07T00:55:44.160Z,48.42
2017-03-07T00:55:58.800Z,48.93
2017-03-07T00:56:13.384Z,49.29
2017-03-07T00:56:27.940Z,49.19
2017-03-07T00:56:42.569Z,49.48
2017-03-07T00:56:57.176Z,49.1
2017-03-07T00:57:11.714Z,49.19
2017-03-07T00:57:26.374Z,49.77
2017-03-07T00:57:40.997Z,49.48
2017-03-07T00:57:55.630Z,49
2017-03-07T00:58:10.257Z,48.33
2017-03-07T00:58:24.920Z,49.22
2017-03-07T00:58:39.545Z,49
2017-03-07T00:58:54.128Z,49.48
2017-03-07T00:59:08.738Z,49.29
2017-03-07T00:59:23.377Z,49.87
2017-03-07T00:59:37.963Z,49.39
2017-03-07T00:59:52.566Z,49.02
2017-03-07T01:00:07.285Z,48.74
2017-03-07T01:00:21.892Z,49.22
2017-03-07T01:00:36.489Z,49.96
2017-03-07T01:00:51.073Z,50.54
2017-03-07T01:01:05.719Z,51.89
2017-03-07T01:01:20.383Z,52.95
2017-03-07T01:01:34.980Z,52.79
2017-03-07T01:01:49.726Z,53.44
2017-03-07T01:02:04.390Z,53.47
2017-03-07T01:02:19.024Z,52.76
2017-03-07T01:02:33.633Z,53.34
2017-03-07T01:02:48.269Z,52.76
2017-03-07T01:03:02.878Z,53.27
2017-03-07T01:03:17.745Z,53.47
2017-03-07T01:03:32.530Z,53.44
2017-03-07T01:03:47.139Z,52.76
2017-03-07T01:04:01.771Z,52.09
2017-03-07T01:04:16.471Z,52.09
2017-03-07T01:04:31.127Z,52.09
2017-03-07T01:04:45.709Z,52.19
2017-03-07T01:05:00.354Z,54.98
2017-03-07T01:05:14.954Z,56.04
2017-03-07T01:05:29.586Z,55.56
2017-03-07T01:05:44.150Z,55.94
2017-03-07T01:05:59.173Z,55.08
2017-03-07T01:06:13.766Z,54.11
2017-03-07T01:06:28.346Z,52.47
2017-03-07T01:06:42.999Z,52.19
2017-03-07T01:06:57.636Z,52.37
2017-03-07T01:07:12.289Z,52.19
2017-03-07T01:07:26.945Z,52.76
2017-03-07T01:07:41.818Z,51.7
2017-03-07T01:07:56.442Z,51.89
2017-03-07T01:08:11.108Z,51.12
2017-03-07T01:08:25.727Z,51.61
2017-03-07T01:08:40.404Z,51.22
2017-03-07T01:08:55.035Z,51.03
2017-03-07T01:09:09.662Z,51.03
2017-03-07T01:09:24.279Z,51.22
2017-03-07T01:09:38.968Z,51.41
2017-03-07T01:09:53.578Z,51.12
2017-03-07T01:10:08.185Z,50.84
2017-03-07T01:10:22.825Z,51.12
2017-03-07T01:10:37.414Z,50.86
2017-03-07T01:10:52.067Z,50.84
2017-03-07T01:11:06.724Z,50.45
2017-03-07T01:11:21.414Z,51.12
2017-03-07T01:11:36.060Z,51.99
2017-03-07T01:11:50.711Z,51.22
2017-03-07T01:12:05.382Z,52.11
2017-03-07T01:12:19.980Z,51.03
2017-03-07T01:12:34.657Z,50.57
2017-03-07T01:12:49.359Z,50.86
2017-03-07T01:13:03.968Z,50.86
2017-03-07T01:13:18.578Z,51.05
2017-03-07T01:13:33.244Z,51.15
2017-03-07T01:13:47.891Z,52.21
2017-03-07T01:14:02.515Z,52.01
2017-03-07T01:14:17.152Z,52.4
2017-03-07T01:14:31.775Z,52.89
2017-03-07T01:14:46.424Z,53.85
2017-03-07T01:15:01.061Z,53.27
2017-03-07T01:15:15.722Z,52.11
2017-03-07T01:15:30.368Z,53.47
2017-03-07T01:15:45.026Z,53.85
2017-03-07T01:15:59.687Z,53.37
2017-03-07T01:16:14.281Z,52.69
2017-03-07T01:16:28.894Z,51.92
2017-03-07T01:16:43.547Z,52.11
2017-03-07T01:16:58.144Z,52.21
2017-03-07T01:17:12.822Z,52.31
2017-03-07T01:17:27.421Z,51.34
2017-03-07T01:17:42.071Z,51.05
2017-03-07T01:17:56.682Z,51.15
2017-03-07T01:18:11.335Z,53.27
2017-03-07T01:18:26.007Z,52.5
2017-03-07T01:18:40.713Z,53.37
2017-03-07T01:18:55.300Z,53.66
2017-03-07T01:19:10.110Z,53.66
2017-03-07T01:19:24.755Z,54.24
2017-03-07T01:19:39.401Z,53.75
2017-03-07T01:19:54.352Z,54.14
2017-03-07T01:20:09.055Z,54.24
2017-03-07T01:20:23.927Z,57.14
2017-03-07T01:20:38.548Z,57.32
2017-03-07T01:20:53.181Z,55.01
2017-03-07T01:21:07.918Z,56.65
2017-03-07T01:21:22.541Z,56.16
2017-03-07T01:21:37.159Z,55.88
2017-03-07T01:21:51.746Z,56.07
2017-03-07T01:22:06.389Z,56.36
2017-03-07T01:22:21.075Z,56.07
2017-03-07T01:22:35.665Z,55.68
2017-03-07T01:22:50.530Z,55.49
2017-03-07T01:23:05.500Z,55.2
2017-03-07T01:23:20.282Z,55.01
2017-03-07T01:23:34.903Z,53.95
2017-03-07T01:23:49.572Z,54.05
2017-03-07T01:24:04.233Z,54.43
2017-03-07T01:24:18.857Z,55.49
2017-03-07T01:24:33.486Z,58.19
2017-03-07T01:24:48.163Z,57.23
2017-03-07T01:25:02.773Z,55.88
2017-03-07T01:25:17.455Z,55.49
2017-03-07T01:25:32.029Z,58.19
2017-03-07T01:25:46.644Z,59.55
2017-03-07T01:26:01.358Z,58.87
2017-03-07T01:26:15.986Z,59.55
2017-03-07T01:26:30.674Z,59.45
2017-03-07T01:26:45.292Z,59.06
2017-03-07T01:26:59.844Z,61.28
2017-03-07T01:27:14.470Z,61.57
2017-03-07T01:27:29.049Z,64.95
2017-03-07T01:27:43.631Z,64.47
2017-03-07T01:27:58.191Z,64.66
2017-03-07T01:28:12.839Z,64.66
2017-03-07T01:28:27.488Z,62.63
2017-03-07T01:28:42.113Z,61.47
2017-03-07T01:28:56.831Z,61.77
2017-03-07T01:29:11.451Z,60.61
2017-03-07T01:29:26.093Z,60.41
2017-03-07T01:29:40.721Z,60.22
2017-03-07T01:29:55.403Z,61.96
2017-03-07T01:30:09.981Z,60.99
2017-03-07T01:30:24.626Z,64.76
2017-03-07T01:30:39.257Z,65.82
2017-03-07T01:30:53.851Z,66.97
2017-03-07T01:31:08.484Z,65.05
2017-03-07T01:31:23.113Z,64.18
2017-03-07T01:31:37.770Z,62.51
2017-03-07T01:31:52.333Z,62.12
2017-03-07T01:32:06.956Z,63.18
2017-03-07T01:32:21.600Z,63.18
2017-03-07T01:32:36.248Z,65.59
2017-03-07T01:32:50.897Z,64.82
2017-03-07T01:33:05.502Z,62.99
2017-03-07T01:33:20.142Z,61.74
2017-03-07T01:33:34.818Z,60.96
2017-03-07T01:33:49.477Z,61.44
2017-03-07T01:34:04.012Z,60.58
2017-03-07T01:34:18.611Z,59.8
2017-03-07T01:34:33.200Z,60.58
2017-03-07T01:34:47.834Z,61.74
2017-03-07T01:35:02.426Z,62.12
2017-03-07T01:35:17.029Z,62.41
2017-03-07T01:35:31.673Z,63.18
2017-03-07T01:35:46.318Z,62.12
2017-03-07T01:36:01.462Z,61.83
2017-03-07T01:36:16.053Z,60.77
2017-03-07T01:36:30.671Z,59.9
2017-03-07T01:36:45.293Z,61.83
2017-03-07T01:36:59.949Z,61.06
2017-03-07T01:37:14.543Z,62.7
2017-03-07T01:37:29.392Z,62.41
2017-03-07T01:37:44.011Z,60.86
2017-03-07T01:37:58.841Z,60.77
2017-03-07T01:38:13.528Z,63.18
2017-03-07T01:38:28.194Z,63.18
2017-03-07T01:38:42.814Z,62.79
2017-03-07T01:38:57.456Z,61.35
2017-03-07T01:39:12.107Z,61.74
2017-03-07T01:39:26.814Z,61.25
2017-03-07T01:39:41.461Z,62.7
2017-03-07T01:39:56.126Z,61.06
2017-03-07T01:40:10.767Z,63.37
2017-03-07T01:40:25.387Z,63.37
2017-03-07T01:40:40.001Z,62.41
2017-03-07T01:40:54.615Z,64.92
2017-03-07T01:41:09.263Z,66.75
2017-03-07T01:41:23.905Z,66.75
2017-03-07T01:41:38.602Z,65.88
2017-03-07T01:41:53.256Z,64.72
2017-03-07T01:42:07.873Z,62.99
2017-03-07T01:42:22.514Z,61.93
2017-03-07T01:42:37.189Z,61.16
2017-03-07T01:42:51.831Z,59.8
2017-03-07T01:43:06.487Z,59.9
2017-03-07T01:43:21.176Z,60.96
2017-03-07T01:43:35.823Z,60.86
2017-03-07T01:43:50.432Z,61.06
2017-03-07T01:44:05.077Z,61.25
2017-03-07T01:44:19.680Z,61.06
2017-03-07T01:44:34.299Z,62.6
2017-03-07T01:44:48.953Z,62.99
2017-03-07T01:45:03.615Z,62.22
2017-03-07T01:45:18.288Z,60.96
2017-03-07T01:45:32.926Z,59.9
2017-03-07T01:45:47.552Z,59.52
2017-03-07T01:46:02.197Z,59.61
2017-03-07T01:46:16.806Z,59.32
2017-03-07T01:46:31.475Z,59.23
2017-03-07T01:46:46.124Z,59.42
2017-03-07T01:47:00.821Z,60.38
2017-03-07T01:47:15.394Z,59.9
2017-03-07T01:47:30.034Z,59.03
2017-03-07T01:47:44.659Z,58.55
2017-03-07T01:47:59.288Z,58.17
2017-03-07T01:48:13.947Z,58.17
2017-03-07T01:48:28.556Z,59.03
2017-03-07T01:48:43.155Z,59.9
2017-03-07T01:48:57.807Z,59.42
2017-03-07T01:49:12.428Z,59.42
2017-03-07T01:49:27.092Z,60.28
2017-03-07T01:49:41.754Z,59.23
2017-03-07T01:49:56.401Z,58.45
2017-03-07T01:50:11.028Z,59.23
2017-03-07T01:50:25.628Z,59.32
2017-03-07T01:50:40.214Z,59.03
2017-03-07T01:50:54.835Z,58.17
2017-03-07T01:51:09.462Z,57.29
2017-03-07T01:51:24.129Z,56.33
2017-03-07T01:51:38.751Z,58.07
2017-03-07T01:51:53.370Z,56.91
2017-03-07T01:52:08.015Z,57.59
2017-03-07T01:52:22.582Z,60.96
2017-03-07T01:52:37.259Z,63.18
2017-03-07T01:52:51.878Z,61.44
2017-03-07T01:53:06.736Z,61.83
2017-03-07T01:53:21.322Z,61.74
2017-03-07T01:53:35.958Z,60.48
2017-03-07T01:53:50.607Z,59.8
2017-03-07T01:54:05.233Z,59.8
2017-03-07T01:54:19.855Z,60.68
2017-03-07T01:54:34.433Z,63.44
2017-03-07T01:54:48.989Z,61.61
2017-03-07T01:55:03.646Z,61.9
2017-03-07T01:55:18.355Z,61.22
2017-03-07T01:55:32.938Z,60.83
2017-03-07T01:55:47.532Z,60.93
2017-03-07T01:56:02.190Z,60.45
2017-03-07T01:56:16.818Z,59.97
2017-03-07T01:56:31.480Z,60.35
2017-03-07T01:56:46.111Z,59.58
2017-03-07T01:57:00.681Z,59
2017-03-07T01:57:15.277Z,59
2017-03-07T01:57:29.980Z,59.3
2017-03-07T01:57:44.600Z,59
2017-03-07T01:57:59.280Z,59
2017-03-07T01:58:13.894Z,59.78
2017-03-07T01:58:28.504Z,60.83
2017-03-07T01:58:43.153Z,59.58
2017-03-07T01:58:57.753Z,59.39
2017-03-07T01:59:12.374Z,59.58
2017-03-07T01:59:26.921Z,59.1
2017-03-07T01:59:41.430Z,59.2
2017-03-07T01:59:55.975Z,59.1
2017-03-07T02:00:10.570Z,59.2
2017-03-07T02:00:25.157Z,57.94
2017-03-07T02:00:39.724Z,58.2
2017-03-07T02:00:54.285Z,60.61
2017-03-07T02:01:08.891Z,62.25
2017-03-07T02:01:23.502Z,62.63
2017-03-07T02:01:38.111Z,61.29
2017-03-07T02:01:52.677Z,60.42
2017-03-07T02:02:07.356Z,59.36
2017-03-07T02:02:21.918Z,59.45
2017-03-07T02:02:36.502Z,58.97
2017-03-07T02:02:51.047Z,59.65
2017-03-07T02:03:05.641Z,60.32
2017-03-07T02:03:20.272Z,60.71
2017-03-07T02:03:34.903Z,60.52
2017-03-07T02:03:49.491Z,60.13
2017-03-07T02:04:04.054Z,59.84
2017-03-07T02:04:18.679Z,59.45
2017-03-07T02:04:33.292Z,60.42
2017-03-07T02:04:47.926Z,59.55
2017-03-07T02:05:02.490Z,58.97
2017-03-07T02:05:17.131Z,59.17
2017-03-07T02:05:31.696Z,59.17
2017-03-07T02:05:46.288Z,58.4
2017-03-07T02:06:00.896Z,59.84
2017-03-07T02:06:15.445Z,60.61
2017-03-07T02:06:30.013Z,60.23
2017-03-07T02:06:44.634Z,60.13
2017-03-07T02:06:59.262Z,60.71
2017-03-07T02:07:13.863Z,61.58
2017-03-07T02:07:28.450Z,61.48
2017-03-07T02:07:43.096Z,61.77
2017-03-07T02:07:57.720Z,61.96
2017-03-07T02:08:12.685Z,61.48
2017-03-07T02:08:27.333Z,61.77
2017-03-07T02:08:41.885Z,60.61
2017-03-07T02:08:56.513Z,59.27
2017-03-07T02:09:11.182Z,59.84
2017-03-07T02:09:25.773Z,60.52
2017-03-07T02:09:40.425Z,60.39
2017-03-07T02:09:54.953Z,59.23
2017-03-07T02:10:09.549Z,59.36
2017-03-07T02:10:24.187Z,59.17
2017-03-07T02:10:38.789Z,58.85
2017-03-07T02:10:53.400Z,58.49
2017-03-07T02:11:07.980Z,59.07
2017-03-07T02:11:22.580Z,59.14
2017-03-07T02:11:37.149Z,59.17
2017-03-07T02:11:51.743Z,58.4
2017-03-07T02:12:06.318Z,57.92
2017-03-07T02:12:20.936Z,57.92
2017-03-07T02:12:35.601Z,58.11
2017-03-07T02:12:50.186Z,57.89
2017-03-07T02:13:04.790Z,57.21
2017-03-07T02:13:19.402Z,56.95
2017-03-07T02:13:33.953Z,56.35
2017-03-07T02:13:48.566Z,55.87
2017-03-07T02:14:03.160Z,55.77
2017-03-07T02:14:17.843Z,55.19
2017-03-07T02:14:32.434Z,55.12
2017-03-07T02:14:47.042Z,56.05
2017-03-07T02:15:01.662Z,55.22
2017-03-07T02:15:16.391Z,54.83
2017-03-07T02:15:30.986Z,54.52
2017-03-07T02:15:45.518Z,53.65
2017-03-07T02:16:00.090Z,53.65
2017-03-07T02:16:14.687Z,53.77
2017-03-07T02:16:29.457Z,53.17
2017-03-07T02:16:44.015Z,53.39
2017-03-07T02:16:58.619Z,52.42
2017-03-07T02:17:13.256Z,52.71
2017-03-07T02:17:27.843Z,53.77
2017-03-07T02:17:42.423Z,53.87
2017-03-07T02:17:57.032Z,54.25
2017-03-07T02:18:11.634Z,55.02
2017-03-07T02:18:26.207Z,54.06
2017-03-07T02:18:40.780Z,53.48
2017-03-07T02:18:55.368Z,53.96
2017-03-07T02:19:09.906Z,53.87
2017-03-07T02:19:24.526Z,53.87
2017-03-07T02:19:39.117Z,53.77
2017-03-07T02:19:53.755Z,53.67
2017-03-07T02:20:08.375Z,53.67
2017-03-07T02:20:23.005Z,53.67
2017-03-07T02:20:37.591Z,53.39
2017-03-07T02:20:52.196Z,54.74
2017-03-07T02:21:06.817Z,53.67
2017-03-07T02:21:21.401Z,53.96
2017-03-07T02:21:35.986Z,53.96
2017-03-07T02:21:50.562Z,53.87
2017-03-07T02:22:05.138Z,52.71
2017-03-07T02:22:19.766Z,53.48
2017-03-07T02:22:34.355Z,53.77
2017-03-07T02:22:48.980Z,53.87
2017-03-07T02:23:03.656Z,53.29
2017-03-07T02:23:18.435Z,53.39
2017-03-07T02:23:33.036Z,52.91
2017-03-07T02:23:47.636Z,52.81
2017-03-07T02:24:02.281Z,53.48
2017-03-07T02:24:16.890Z,52.61
2017-03-07T02:24:31.526Z,52.71
2017-03-07T02:24:46.166Z,52.71
2017-03-07T02:25:00.754Z,52.13
2017-03-07T02:25:15.382Z,51.94
2017-03-07T02:25:29.965Z,51.07
2017-03-07T02:25:44.541Z,50.78
2017-03-07T02:25:59.143Z,50.3
2017-03-07T02:26:13.796Z,49.82
2017-03-07T02:26:28.375Z,50.21
2017-03-07T02:26:43.019Z,50.49
2017-03-07T02:26:57.801Z,50.3
2017-03-07T02:27:12.421Z,50.78
2017-03-07T02:27:27.067Z,50.59
2017-03-07T02:27:41.640Z,50.3
2017-03-07T02:27:56.250Z,49.82
2017-03-07T02:28:10.879Z,49.43
2017-03-07T02:28:25.484Z,49.15
2017-03-07T02:28:40.127Z,49.05
2017-03-07T02:28:54.737Z,48.76
2017-03-07T02:29:09.335Z,48.18
2017-03-07T02:29:23.919Z,48.08
2017-03-07T02:29:38.552Z,47.41
2017-03-07T02:29:53.110Z,48.28
2017-03-07T02:30:07.699Z,49.63
2017-03-07T02:30:22.349Z,50.3
2017-03-07T02:30:36.938Z,50.11
2017-03-07T02:30:51.556Z,49.43
2017-03-07T02:31:06.463Z,49.24
2017-03-07T02:31:21.068Z,48.95
2017-03-07T02:31:35.676Z,48.57
2017-03-07T02:31:50.355Z,47.8
2017-03-07T02:32:04.963Z,47.6
2017-03-07T02:32:19.758Z,47.51
2017-03-07T02:32:34.307Z,47.7
2017-03-07T02:32:48.894Z,47.7
2017-03-07T02:33:03.512Z,47.8
2017-03-07T02:33:18.052Z,47.22
2017-03-07T02:33:32.630Z,46.93
2017-03-07T02:33:47.238Z,46.55
2017-03-07T02:34:01.787Z,46.55
2017-03-07T02:34:16.422Z,46.64
2017-03-07T02:34:31.049Z,46.45
2017-03-07T02:34:45.673Z,46.64
2017-03-07T02:35:00.264Z,46.93
2017-03-07T02:35:14.884Z,46.93
2017-03-07T02:35:29.424Z,46.55
2017-03-07T02:35:44.055Z,46.55
2017-03-07T02:35:58.651Z,46.25
2017-03-07T02:36:13.298Z,46.55
2017-03-07T02:36:27.900Z,46.64
2017-03-07T02:36:42.484Z,46.55
2017-03-07T02:36:57.157Z,46.55
2017-03-07T02:37:11.750Z,46.55
2017-03-07T02:37:26.406Z,46.45
2017-03-07T02:37:40.949Z,46.55
2017-03-07T02:37:55.555Z,46.64
2017-03-07T02:38:10.143Z,47.99
2017-03-07T02:38:24.724Z,48.86
2017-03-07T02:38:39.725Z,49.34
2017-03-07T02:38:54.541Z,48.86
2017-03-07T02:39:09.094Z,48.28
2017-03-07T02:39:23.711Z,48.08
2017-03-07T02:39:38.323Z,47.41
2017-03-07T02:39:52.973Z,47.03
2017-03-07T02:40:07.473Z,46.93
2017-03-07T02:40:21.991Z,47.03
2017-03-07T02:40:36.623Z,46.55
2017-03-07T02:40:51.205Z,46.83
2017-03-07T02:41:05.780Z,47.03
2017-03-07T02:41:20.353Z,46.73
2017-03-07T02:41:34.918Z,47.12
2017-03-07T02:41:49.521Z,47.6
2017-03-07T02:42:04.095Z,46.55
2017-03-07T02:42:18.701Z,46.73
2017-03-07T02:42:33.257Z,46.83
2017-03-07T02:42:47.809Z,46.64
2017-03-07T02:43:02.419Z,46.64
2017-03-07T02:43:17.009Z,47.03
2017-03-07T02:43:31.632Z,47.41
2017-03-07T02:43:46.218Z,48.38
2017-03-07T02:44:00.803Z,47.6
2017-03-07T02:44:15.335Z,47.31
2017-03-07T02:44:29.900Z,47.51
2017-03-07T02:44:44.565Z,47.41
2017-03-07T02:44:59.217Z,47.6
2017-03-07T02:45:13.812Z,47.6
2017-03-07T02:45:28.415Z,47.6
2017-03-07T02:45:43.028Z,47.6
2017-03-07T02:45:57.606Z,46.83
2017-03-07T02:46:12.233Z,46.93
2017-03-07T02:46:26.856Z,46.93
2017-03-07T02:46:41.499Z,47.03
2017-03-07T02:46:56.097Z,47.41
2017-03-07T02:47:10.695Z,47.41
2017-03-07T02:47:25.304Z,47.8
2017-03-07T02:47:39.887Z,49.73
2017-03-07T02:47:54.483Z,50.3
2017-03-07T02:48:09.038Z,49.34
2017-03-07T02:48:23.615Z,48.76
2017-03-07T02:48:38.183Z,47.99
2017-03-07T02:48:52.792Z,50.3
2017-03-07T02:49:07.397Z,50.98
2017-03-07T02:49:22.014Z,49.63
2017-03-07T02:49:36.612Z,49.43
2017-03-07T02:49:51.304Z,50.21
2017-03-07T02:50:05.874Z,50.49
2017-03-07T02:50:20.466Z,50.88
2017-03-07T02:50:35.043Z,50.3
2017-03-07T02:50:49.623Z,50.4
2017-03-07T02:51:04.251Z,50.78
2017-03-07T02:51:18.845Z,51.84
2017-03-07T02:51:33.472Z,51.26
2017-03-07T02:51:48.120Z,50.21
2017-03-07T02:52:02.691Z,49.91
2017-03-07T02:52:17.323Z,49.53
2017-03-07T02:52:31.951Z,49.15
2017-03-07T02:52:46.553Z,49.05
2017-03-07T02:53:01.142Z,48.76
2017-03-07T02:53:15.750Z,48.28
2017-03-07T02:53:30.359Z,47.8
2017-03-07T02:53:45.229Z,47.41
2017-03-07T02:53:59.821Z,48.86
2017-03-07T02:54:14.398Z,50.3
2017-03-07T02:54:28.989Z,52.13
2017-03-07T02:54:43.589Z,50.88
2017-03-07T02:54:58.200Z,50.98
2017-03-07T02:55:12.821Z,50.59
2017-03-07T02:55:27.420Z,49.82
2017-03-07T02:55:42.062Z,50.69
2017-03-07T02:55:56.656Z,49.73
2017-03-07T02:56:11.263Z,49.05
2017-03-07T02:56:25.870Z,48.18
2017-03-07T02:56:40.442Z,49.05
2017-03-07T02:56:55.066Z,48.47
2017-03-07T02:57:09.681Z,48.08
2017-03-07T02:57:24.261Z,48.18
2017-03-07T02:57:38.888Z,48.08
2017-03-07T02:57:53.457Z,48.08
2017-03-07T02:58:08.066Z,48.28
2017-03-07T02:58:22.689Z,48.47
2017-03-07T02:58:37.320Z,48.86
2017-03-07T02:58:51.946Z,48.38
2017-03-07T02:59:06.505Z,47.8
2017-03-07T02:59:21.120Z,50.11
2017-03-07T02:59:35.720Z,53.48
2017-03-07T02:59:50.313Z,53.96
2017-03-07T03:00:04.944Z,52.61
2017-03-07T03:00:19.532Z,51.94
2017-03-07T03:00:34.240Z,51.07
2017-03-07T03:00:48.857Z,50.59
2017-03-07T03:01:03.534Z,50.69
2017-03-07T03:01:18.163Z,49.91
2017-03-07T03:01:32.727Z,49.73
2017-03-07T03:01:47.338Z,49.73
2017-03-07T03:02:01.907Z,50.98
2017-03-07T03:02:16.485Z,51.07
2017-03-07T03:02:31.095Z,50.21
2017-03-07T03:02:45.641Z,50.01
2017-03-07T03:03:00.223Z,49.73
2017-03-07T03:03:14.788Z,49.91
2017-03-07T03:03:29.359Z,51.07
2017-03-07T03:03:43.972Z,51.75
2017-03-07T03:03:58.642Z,51.94
2017-03-07T03:04:13.241Z,52.61
2017-03-07T03:04:27.880Z,52.71
2017-03-07T03:04:42.487Z,51.84
2017-03-07T03:04:57.103Z,50.69
2017-03-07T03:05:11.685Z,50.21
2017-03-07T03:05:26.277Z,50.21
2017-03-07T03:05:40.913Z,50.4
2017-03-07T03:05:55.547Z,50.01
2017-03-07T03:06:10.112Z,50.21
2017-03-07T03:06:24.700Z,49.53
2017-03-07T03:06:39.325Z,49.15
2017-03-07T03:06:53.948Z,49.05
2017-03-07T03:07:08.541Z,49.43
2017-03-07T03:07:23.092Z,49.05
2017-03-07T03:07:37.695Z,48.95
2017-03-07T03:07:52.351Z,49.05
2017-03-07T03:08:06.927Z,49.82
2017-03-07T03:08:21.538Z,49.24
2017-03-07T03:08:36.208Z,49.46
2017-03-07T03:08:51.016Z,49.53
2017-03-07T03:09:05.619Z,49.94